sensor_id;sensor_type;location;lat;lon;timestamp;temperature;humidity
21582;DHT22;10952;50.836;4.348;2023-12-14T00:00:30;10.90;99.90
21582;DHT22;10952;50.836;4.348;2023-12-14T00:02:57;10.90;99.90
21582;DHT22;10952;50.836;4.348;2023-12-14T00:05:23;10.80;99.90
21582;DHT22;10952;50.836;4.348;2023-12-14T00:07:48;10.80;99.90
21582;DHT22;10952;50.836;4.348;2023-12-14T00:10:14;10.80;99.90
21582;DHT22;10952;50.836;4.348;2023-12-14T00:12:40;10.70;99.90
21582;DHT22;10952;50.836;4.348;2023-12-14T00:15:06;10.70;99.90
21582;DHT22;10952;50.836;4.348;2023-12-14T00:17:32;10.70;99.90
21582;DHT22;10952;50.836;4.348;2023-12-14T00:19:57;10.70;99.90
21582;DHT22;10952;50.836;4.348;2023-12-14T00:22:23;10.60;99.90
21582;DHT22;10952;50.836;4.348;2023-12-14T00:24:50;10.80;99.90
21582;DHT22;10952;50.836;4.348;2023-12-14T00:27:16;10.70;99.90
21582;DHT22;10952;50.836;4.348;2023-12-14T00:29:42;10.80;99.90
21582;DHT22;10952;50.836;4.348;2023-12-14T00:32:08;10.90;99.90
21582;DHT22;10952;50.836;4.348;2023-12-14T00:34:34;10.90;99.90
21582;DHT22;10952;50.836;4.348;2023-12-14T00:36:59;10.80;99.90
21582;DHT22;10952;50.836;4.348;2023-12-14T00:39:25;10.80;99.90
21582;DHT22;10952;50.836;4.348;2023-12-14T00:41:51;10.80;99.90
21582;DHT22;10952;50.836;4.348;2023-12-14T00:44:17;10.70;99.90
21582;DHT22;10952;50.836;4.348;2023-12-14T00:46:42;10.80;99.90
21582;DHT22;10952;50.836;4.348;2023-12-14T00:49:08;10.70;99.90
21582;DHT22;10952;50.836;4.348;2023-12-14T00:51:34;10.60;99.90
21582;DHT22;10952;50.836;4.348;2023-12-14T00:53:59;10.70;99.90
21582;DHT22;10952;50.836;4.348;2023-12-14T00:56:25;10.70;99.90
21582;DHT22;10952;50.836;4.348;2023-12-14T00:58:51;10.80;99.90
21582;DHT22;10952;50.836;4.348;2023-12-14T01:01:17;10.80;99.90
21582;DHT22;10952;50.836;4.348;2023-12-14T01:03:42;10.70;99.90
21582;DHT22;10952;50.836;4.348;2023-12-14T01:06:08;10.70;99.90
21582;DHT22;10952;50.836;4.348;2023-12-14T01:08:33;10.60;99.90
21582;DHT22;10952;50.836;4.348;2023-12-14T01:10:59;10.60;99.90
21582;DHT22;10952;50.836;4.348;2023-12-14T01:13:25;10.70;99.90
21582;DHT22;10952;50.836;4.348;2023-12-14T01:15:50;10.60;99.90
21582;DHT22;10952;50.836;4.348;2023-12-14T01:18:16;10.50;99.90
21582;DHT22;10952;50.836;4.348;2023-12-14T01:20:42;10.40;99.90
21582;DHT22;10952;50.836;4.348;2023-12-14T01:23:08;10.40;99.90
21582;DHT22;10952;50.836;4.348;2023-12-14T01:25:35;10.40;99.90
21582;DHT22;10952;50.836;4.348;2023-12-14T01:28:01;10.40;99.90
21582;DHT22;10952;50.836;4.348;2023-12-14T01:30:27;10.30;99.90
21582;DHT22;10952;50.836;4.348;2023-12-14T01:32:53;10.30;99.90
21582;DHT22;10952;50.836;4.348;2023-12-14T01:35:18;10.40;99.90
21582;DHT22;10952;50.836;4.348;2023-12-14T01:37:44;10.50;99.90
21582;DHT22;10952;50.836;4.348;2023-12-14T01:40:10;10.50;99.90
21582;DHT22;10952;50.836;4.348;2023-12-14T01:42:36;10.30;99.90
21582;DHT22;10952;50.836;4.348;2023-12-14T01:45:02;10.30;99.90
21582;DHT22;10952;50.836;4.348;2023-12-14T01:47:29;10.30;99.90
21582;DHT22;10952;50.836;4.348;2023-12-14T01:49:56;10.30;99.90
21582;DHT22;10952;50.836;4.348;2023-12-14T01:52:22;10.40;99.90
21582;DHT22;10952;50.836;4.348;2023-12-14T01:54:47;10.20;99.90
21582;DHT22;10952;50.836;4.348;2023-12-14T01:57:13;10.20;99.90
21582;DHT22;10952;50.836;4.348;2023-12-14T01:59:39;10.10;99.90
21582;DHT22;10952;50.836;4.348;2023-12-14T02:02:04;10.00;99.90
21582;DHT22;10952;50.836;4.348;2023-12-14T02:04:31;10.00;99.90
21582;DHT22;10952;50.836;4.348;2023-12-14T02:06:57;10.00;99.90
21582;DHT22;10952;50.836;4.348;2023-12-14T02:09:23;10.00;99.90
21582;DHT22;10952;50.836;4.348;2023-12-14T02:11:50;10.10;99.90
21582;DHT22;10952;50.836;4.348;2023-12-14T02:14:16;10.10;99.90
21582;DHT22;10952;50.836;4.348;2023-12-14T02:16:42;10.00;99.90
21582;DHT22;10952;50.836;4.348;2023-12-14T02:19:08;10.10;99.90
21582;DHT22;10952;50.836;4.348;2023-12-14T02:21:35;10.10;99.90
21582;DHT22;10952;50.836;4.348;2023-12-14T02:24:00;10.00;99.90
21582;DHT22;10952;50.836;4.348;2023-12-14T02:26:26;9.90;99.90
21582;DHT22;10952;50.836;4.348;2023-12-14T02:28:52;10.00;99.90
21582;DHT22;10952;50.836;4.348;2023-12-14T02:31:19;10.10;99.90
21582;DHT22;10952;50.836;4.348;2023-12-14T02:33:45;10.20;99.90
21582;DHT22;10952;50.836;4.348;2023-12-14T02:36:11;10.10;99.90
21582;DHT22;10952;50.836;4.348;2023-12-14T02:38:37;10.10;99.90
21582;DHT22;10952;50.836;4.348;2023-12-14T02:41:03;10.10;99.90
21582;DHT22;10952;50.836;4.348;2023-12-14T02:43:29;9.90;99.90
21582;DHT22;10952;50.836;4.348;2023-12-14T02:45:54;9.80;99.90
21582;DHT22;10952;50.836;4.348;2023-12-14T02:48:26;9.80;99.90
21582;DHT22;10952;50.836;4.348;2023-12-14T02:50:52;9.80;99.90
21582;DHT22;10952;50.836;4.348;2023-12-14T02:53:18;9.80;99.90
21582;DHT22;10952;50.836;4.348;2023-12-14T02:55:43;9.80;99.90
21582;DHT22;10952;50.836;4.348;2023-12-14T02:58:09;9.90;99.90
21582;DHT22;10952;50.836;4.348;2023-12-14T03:00:35;9.90;99.90
21582;DHT22;10952;50.836;4.348;2023-12-14T03:03:00;9.90;99.90
21582;DHT22;10952;50.836;4.348;2023-12-14T03:05:26;9.70;99.90
21582;DHT22;10952;50.836;4.348;2023-12-14T03:07:52;9.70;99.90
21582;DHT22;10952;50.836;4.348;2023-12-14T03:10:18;9.70;99.90
21582;DHT22;10952;50.836;4.348;2023-12-14T03:12:44;9.80;99.90
21582;DHT22;10952;50.836;4.348;2023-12-14T03:15:10;9.90;99.90
21582;DHT22;10952;50.836;4.348;2023-12-14T03:17:35;9.80;99.90
21582;DHT22;10952;50.836;4.348;2023-12-14T03:20:02;9.80;99.90
21582;DHT22;10952;50.836;4.348;2023-12-14T03:22:28;9.90;99.90
21582;DHT22;10952;50.836;4.348;2023-12-14T03:24:54;9.90;99.90
21582;DHT22;10952;50.836;4.348;2023-12-14T03:27:20;9.70;99.90
21582;DHT22;10952;50.836;4.348;2023-12-14T03:29:48;9.80;99.90
21582;DHT22;10952;50.836;4.348;2023-12-14T03:32:13;9.70;99.90
21582;DHT22;10952;50.836;4.348;2023-12-14T03:34:39;9.70;99.90
21582;DHT22;10952;50.836;4.348;2023-12-14T03:37:05;9.70;99.90
21582;DHT22;10952;50.836;4.348;2023-12-14T03:39:30;9.70;99.90
21582;DHT22;10952;50.836;4.348;2023-12-14T03:41:56;9.40;99.90
21582;DHT22;10952;50.836;4.348;2023-12-14T03:44:22;9.40;99.90
21582;DHT22;10952;50.836;4.348;2023-12-14T03:46:49;9.20;99.90
21582;DHT22;10952;50.836;4.348;2023-12-14T03:49:15;8.80;99.90
21582;DHT22;10952;50.836;4.348;2023-12-14T03:51:41;8.50;99.90
21582;DHT22;10952;50.836;4.348;2023-12-14T03:54:06;8.50;99.90
21582;DHT22;10952;50.836;4.348;2023-12-14T03:56:32;8.60;99.90
21582;DHT22;10952;50.836;4.348;2023-12-14T03:58:58;8.50;99.90
21582;DHT22;10952;50.836;4.348;2023-12-14T04:01:24;8.40;99.90
21582;DHT22;10952;50.836;4.348;2023-12-14T04:03:50;8.40;99.90
21582;DHT22;10952;50.836;4.348;2023-12-14T04:06:17;8.30;99.90
21582;DHT22;10952;50.836;4.348;2023-12-14T04:08:43;8.40;99.90
21582;DHT22;10952;50.836;4.348;2023-12-14T04:11:09;8.40;99.90
21582;DHT22;10952;50.836;4.348;2023-12-14T04:13:34;8.40;99.90
21582;DHT22;10952;50.836;4.348;2023-12-14T04:16:00;8.40;99.90
21582;DHT22;10952;50.836;4.348;2023-12-14T04:18:26;8.50;99.90
21582;DHT22;10952;50.836;4.348;2023-12-14T04:20:52;8.30;99.90
21582;DHT22;10952;50.836;4.348;2023-12-14T04:23:18;8.30;99.90
21582;DHT22;10952;50.836;4.348;2023-12-14T04:25:44;8.30;99.90
21582;DHT22;10952;50.836;4.348;2023-12-14T04:28:10;8.10;99.90
21582;DHT22;10952;50.836;4.348;2023-12-14T04:30:36;8.00;99.90
21582;DHT22;10952;50.836;4.348;2023-12-14T04:33:01;8.00;99.90
21582;DHT22;10952;50.836;4.348;2023-12-14T04:35:28;8.10;99.90
21582;DHT22;10952;50.836;4.348;2023-12-14T04:37:54;8.30;99.90
21582;DHT22;10952;50.836;4.348;2023-12-14T04:40:20;8.20;99.90
21582;DHT22;10952;50.836;4.348;2023-12-14T04:42:46;8.10;99.90
21582;DHT22;10952;50.836;4.348;2023-12-14T04:45:11;8.10;99.90
21582;DHT22;10952;50.836;4.348;2023-12-14T04:47:38;8.20;99.90
21582;DHT22;10952;50.836;4.348;2023-12-14T04:50:04;8.20;99.90
21582;DHT22;10952;50.836;4.348;2023-12-14T04:52:30;8.20;99.90
21582;DHT22;10952;50.836;4.348;2023-12-14T04:54:56;8.10;99.90
21582;DHT22;10952;50.836;4.348;2023-12-14T04:57:21;8.00;99.90
21582;DHT22;10952;50.836;4.348;2023-12-14T04:59:47;8.00;99.90
21582;DHT22;10952;50.836;4.348;2023-12-14T05:02:14;8.10;99.90
21582;DHT22;10952;50.836;4.348;2023-12-14T05:04:40;7.90;99.90
21582;DHT22;10952;50.836;4.348;2023-12-14T05:07:05;7.80;99.90
21582;DHT22;10952;50.836;4.348;2023-12-14T05:09:31;7.80;99.90
21582;DHT22;10952;50.836;4.348;2023-12-14T05:11:57;7.90;99.90
21582;DHT22;10952;50.836;4.348;2023-12-14T05:14:23;7.90;99.90
21582;DHT22;10952;50.836;4.348;2023-12-14T05:16:49;7.90;99.90
21582;DHT22;10952;50.836;4.348;2023-12-14T05:19:14;8.00;99.90
21582;DHT22;10952;50.836;4.348;2023-12-14T05:21:40;7.80;99.90
21582;DHT22;10952;50.836;4.348;2023-12-14T05:24:07;7.90;99.90
21582;DHT22;10952;50.836;4.348;2023-12-14T05:26:33;8.00;99.90
21582;DHT22;10952;50.836;4.348;2023-12-14T05:28:58;7.90;99.90
21582;DHT22;10952;50.836;4.348;2023-12-14T05:31:24;7.70;99.90
21582;DHT22;10952;50.836;4.348;2023-12-14T05:33:51;7.70;99.90
21582;DHT22;10952;50.836;4.348;2023-12-14T05:36:17;7.90;99.90
21582;DHT22;10952;50.836;4.348;2023-12-14T05:38:43;8.00;99.90
21582;DHT22;10952;50.836;4.348;2023-12-14T05:41:09;8.00;99.90
21582;DHT22;10952;50.836;4.348;2023-12-14T05:43:35;8.00;99.90
21582;DHT22;10952;50.836;4.348;2023-12-14T05:46:02;8.10;99.90
21582;DHT22;10952;50.836;4.348;2023-12-14T05:48:27;8.20;99.90
21582;DHT22;10952;50.836;4.348;2023-12-14T05:50:53;8.40;99.90
21582;DHT22;10952;50.836;4.348;2023-12-14T05:53:19;8.40;99.90
21582;DHT22;10952;50.836;4.348;2023-12-14T05:55:46;8.40;99.90
21582;DHT22;10952;50.836;4.348;2023-12-14T05:58:12;8.50;99.90
21582;DHT22;10952;50.836;4.348;2023-12-14T06:00:38;8.50;99.90
21582;DHT22;10952;50.836;4.348;2023-12-14T06:03:05;8.40;99.90
21582;DHT22;10952;50.836;4.348;2023-12-14T06:05:31;8.30;99.90
21582;DHT22;10952;50.836;4.348;2023-12-14T06:07:57;8.20;99.90
21582;DHT22;10952;50.836;4.348;2023-12-14T06:10:22;8.10;99.90
21582;DHT22;10952;50.836;4.348;2023-12-14T06:12:48;8.20;99.90
21582;DHT22;10952;50.836;4.348;2023-12-14T06:15:15;8.20;99.90
21582;DHT22;10952;50.836;4.348;2023-12-14T06:17:41;8.30;99.90
21582;DHT22;10952;50.836;4.348;2023-12-14T06:20:08;8.30;99.90
21582;DHT22;10952;50.836;4.348;2023-12-14T06:22:37;8.40;99.90
21582;DHT22;10952;50.836;4.348;2023-12-14T06:25:03;8.30;99.90
21582;DHT22;10952;50.836;4.348;2023-12-14T06:27:30;8.30;99.90
21582;DHT22;10952;50.836;4.348;2023-12-14T06:29:56;8.30;99.90
21582;DHT22;10952;50.836;4.348;2023-12-14T06:32:23;8.40;99.90
21582;DHT22;10952;50.836;4.348;2023-12-14T06:34:48;8.30;99.90
21582;DHT22;10952;50.836;4.348;2023-12-14T06:37:14;8.40;99.90
21582;DHT22;10952;50.836;4.348;2023-12-14T06:39:43;8.30;99.90
21582;DHT22;10952;50.836;4.348;2023-12-14T06:42:09;8.40;99.90
21582;DHT22;10952;50.836;4.348;2023-12-14T06:44:35;8.40;99.90
21582;DHT22;10952;50.836;4.348;2023-12-14T06:47:01;8.40;99.90
21582;DHT22;10952;50.836;4.348;2023-12-14T06:49:26;8.50;99.90
21582;DHT22;10952;50.836;4.348;2023-12-14T06:51:52;8.40;99.90
21582;DHT22;10952;50.836;4.348;2023-12-14T06:54:18;8.20;99.90
21582;DHT22;10952;50.836;4.348;2023-12-14T06:56:44;8.10;99.90
21582;DHT22;10952;50.836;4.348;2023-12-14T06:59:10;8.00;99.90
21582;DHT22;10952;50.836;4.348;2023-12-14T07:01:36;8.00;99.90
21582;DHT22;10952;50.836;4.348;2023-12-14T07:04:01;8.00;99.90
21582;DHT22;10952;50.836;4.348;2023-12-14T07:06:30;7.90;99.90
21582;DHT22;10952;50.836;4.348;2023-12-14T07:08:56;7.80;99.90
21582;DHT22;10952;50.836;4.348;2023-12-14T07:11:21;7.90;99.90
21582;DHT22;10952;50.836;4.348;2023-12-14T07:13:47;7.90;99.90
21582;DHT22;10952;50.836;4.348;2023-12-14T07:16:13;7.90;99.90
21582;DHT22;10952;50.836;4.348;2023-12-14T07:18:41;8.00;99.90
21582;DHT22;10952;50.836;4.348;2023-12-14T07:21:08;8.10;99.90
21582;DHT22;10952;50.836;4.348;2023-12-14T07:23:34;8.10;99.90
21582;DHT22;10952;50.836;4.348;2023-12-14T07:26:00;8.10;99.90
21582;DHT22;10952;50.836;4.348;2023-12-14T07:28:26;8.10;99.90
21582;DHT22;10952;50.836;4.348;2023-12-14T07:30:52;8.20;99.90
21582;DHT22;10952;50.836;4.348;2023-12-14T07:33:18;8.20;99.90
21582;DHT22;10952;50.836;4.348;2023-12-14T07:35:45;8.10;99.90
21582;DHT22;10952;50.836;4.348;2023-12-14T07:38:11;8.10;99.90
21582;DHT22;10952;50.836;4.348;2023-12-14T07:40:36;8.20;99.90
21582;DHT22;10952;50.836;4.348;2023-12-14T07:43:04;8.30;99.90
21582;DHT22;10952;50.836;4.348;2023-12-14T07:45:30;8.40;99.90
21582;DHT22;10952;50.836;4.348;2023-12-14T07:47:55;8.50;99.90
21582;DHT22;10952;50.836;4.348;2023-12-14T07:50:22;8.60;99.90
21582;DHT22;10952;50.836;4.348;2023-12-14T07:52:48;8.50;99.90
21582;DHT22;10952;50.836;4.348;2023-12-14T07:55:14;8.50;99.90
21582;DHT22;10952;50.836;4.348;2023-12-14T07:57:40;8.40;99.90
21582;DHT22;10952;50.836;4.348;2023-12-14T08:00:06;8.30;99.90
21582;DHT22;10952;50.836;4.348;2023-12-14T08:02:34;8.40;99.90
21582;DHT22;10952;50.836;4.348;2023-12-14T08:05:00;8.40;99.90
21582;DHT22;10952;50.836;4.348;2023-12-14T08:07:25;8.30;99.90
21582;DHT22;10952;50.836;4.348;2023-12-14T08:09:57;8.30;99.90
21582;DHT22;10952;50.836;4.348;2023-12-14T08:12:24;8.40;99.90
21582;DHT22;10952;50.836;4.348;2023-12-14T08:14:50;8.30;99.90
21582;DHT22;10952;50.836;4.348;2023-12-14T08:17:16;8.20;99.90
21582;DHT22;10952;50.836;4.348;2023-12-14T08:19:43;8.20;99.90
21582;DHT22;10952;50.836;4.348;2023-12-14T08:22:09;8.30;99.90
21582;DHT22;10952;50.836;4.348;2023-12-14T08:24:39;8.30;99.90
21582;DHT22;10952;50.836;4.348;2023-12-14T08:27:05;8.30;99.90
21582;DHT22;10952;50.836;4.348;2023-12-14T08:29:30;8.30;99.90
21582;DHT22;10952;50.836;4.348;2023-12-14T08:31:56;8.40;99.90
21582;DHT22;10952;50.836;4.348;2023-12-14T08:34:25;8.40;99.90
21582;DHT22;10952;50.836;4.348;2023-12-14T08:36:51;8.40;99.90
21582;DHT22;10952;50.836;4.348;2023-12-14T08:39:17;8.60;99.90
21582;DHT22;10952;50.836;4.348;2023-12-14T08:41:42;8.70;99.90
21582;DHT22;10952;50.836;4.348;2023-12-14T08:44:10;8.80;99.90
21582;DHT22;10952;50.836;4.348;2023-12-14T08:46:46;8.80;99.90
21582;DHT22;10952;50.836;4.348;2023-12-14T08:49:13;8.90;99.90
21582;DHT22;10952;50.836;4.348;2023-12-14T08:51:39;8.90;99.90
21582;DHT22;10952;50.836;4.348;2023-12-14T08:54:06;8.80;99.90
21582;DHT22;10952;50.836;4.348;2023-12-14T08:56:32;8.60;99.90
21582;DHT22;10952;50.836;4.348;2023-12-14T08:58:58;8.50;99.90
21582;DHT22;10952;50.836;4.348;2023-12-14T09:01:25;8.40;99.90
21582;DHT22;10952;50.836;4.348;2023-12-14T09:03:50;8.40;99.90
21582;DHT22;10952;50.836;4.348;2023-12-14T09:06:17;8.40;99.90
21582;DHT22;10952;50.836;4.348;2023-12-14T09:08:44;8.50;99.90
21582;DHT22;10952;50.836;4.348;2023-12-14T09:11:10;8.60;99.90
21582;DHT22;10952;50.836;4.348;2023-12-14T09:13:35;8.40;99.90
21582;DHT22;10952;50.836;4.348;2023-12-14T09:16:01;8.50;99.90
21582;DHT22;10952;50.836;4.348;2023-12-14T09:18:27;8.50;99.90
21582;DHT22;10952;50.836;4.348;2023-12-14T09:20:52;8.50;99.90
21582;DHT22;10952;50.836;4.348;2023-12-14T09:23:18;8.40;99.90
21582;DHT22;10952;50.836;4.348;2023-12-14T09:25:47;8.40;99.90
21582;DHT22;10952;50.836;4.348;2023-12-14T09:28:12;8.50;99.90
21582;DHT22;10952;50.836;4.348;2023-12-14T09:30:38;8.50;99.90
21582;DHT22;10952;50.836;4.348;2023-12-14T09:33:04;8.70;99.90
21582;DHT22;10952;50.836;4.348;2023-12-14T09:35:30;8.80;99.90
21582;DHT22;10952;50.836;4.348;2023-12-14T09:37:56;8.80;99.90
21582;DHT22;10952;50.836;4.348;2023-12-14T09:40:22;8.80;99.90
21582;DHT22;10952;50.836;4.348;2023-12-14T09:42:48;8.90;99.90
21582;DHT22;10952;50.836;4.348;2023-12-14T09:45:16;8.80;99.90
21582;DHT22;10952;50.836;4.348;2023-12-14T09:47:44;8.80;99.90
21582;DHT22;10952;50.836;4.348;2023-12-14T09:50:12;8.90;99.90
21582;DHT22;10952;50.836;4.348;2023-12-14T09:52:40;9.00;99.90
21582;DHT22;10952;50.836;4.348;2023-12-14T09:55:11;8.80;99.90
21582;DHT22;10952;50.836;4.348;2023-12-14T09:57:37;8.80;99.90
21582;DHT22;10952;50.836;4.348;2023-12-14T10:00:02;8.90;99.90
21582;DHT22;10952;50.836;4.348;2023-12-14T10:02:31;8.90;99.90
21582;DHT22;10952;50.836;4.348;2023-12-14T10:04:57;8.90;99.90
21582;DHT22;10952;50.836;4.348;2023-12-14T10:07:24;9.00;99.90
21582;DHT22;10952;50.836;4.348;2023-12-14T10:09:49;9.10;99.90
21582;DHT22;10952;50.836;4.348;2023-12-14T10:12:16;9.00;99.90
21582;DHT22;10952;50.836;4.348;2023-12-14T10:14:41;9.00;99.90
21582;DHT22;10952;50.836;4.348;2023-12-14T10:17:22;9.00;99.90
21582;DHT22;10952;50.836;4.348;2023-12-14T10:19:57;9.30;99.90
21582;DHT22;10952;50.836;4.348;2023-12-14T10:22:26;9.20;99.90
21582;DHT22;10952;50.836;4.348;2023-12-14T10:24:53;9.10;99.90
21582;DHT22;10952;50.836;4.348;2023-12-14T10:27:19;9.20;99.90
21582;DHT22;10952;50.836;4.348;2023-12-14T10:29:46;8.90;99.90
21582;DHT22;10952;50.836;4.348;2023-12-14T10:32:12;9.00;99.90
21582;DHT22;10952;50.836;4.348;2023-12-14T10:34:38;8.90;99.90
21582;DHT22;10952;50.836;4.348;2023-12-14T10:37:07;9.00;99.90
21582;DHT22;10952;50.836;4.348;2023-12-14T10:39:34;8.90;99.90
21582;DHT22;10952;50.836;4.348;2023-12-14T10:42:03;9.00;99.90
21582;DHT22;10952;50.836;4.348;2023-12-14T10:44:36;8.90;99.90
21582;DHT22;10952;50.836;4.348;2023-12-14T10:47:03;8.70;99.90
21582;DHT22;10952;50.836;4.348;2023-12-14T10:49:30;8.80;99.90
21582;DHT22;10952;50.836;4.348;2023-12-14T10:51:57;9.00;99.90
21582;DHT22;10952;50.836;4.348;2023-12-14T10:54:25;9.20;99.90
21582;DHT22;10952;50.836;4.348;2023-12-14T10:56:57;9.20;99.90
21582;DHT22;10952;50.836;4.348;2023-12-14T10:59:26;9.10;99.90
21582;DHT22;10952;50.836;4.348;2023-12-14T11:01:54;9.00;99.90
21582;DHT22;10952;50.836;4.348;2023-12-14T11:04:25;9.10;99.90
21582;DHT22;10952;50.836;4.348;2023-12-14T11:06:53;9.20;99.90
21582;DHT22;10952;50.836;4.348;2023-12-14T11:09:22;9.30;99.90
21582;DHT22;10952;50.836;4.348;2023-12-14T11:14:23;9.50;99.90
21582;DHT22;10952;50.836;4.348;2023-12-14T11:16:53;9.60;99.90
21582;DHT22;10952;50.836;4.348;2023-12-14T11:24:23;9.30;99.90
21582;DHT22;10952;50.836;4.348;2023-12-14T11:26:50;9.20;99.90
21582;DHT22;10952;50.836;4.348;2023-12-14T11:29:17;9.20;99.90
21582;DHT22;10952;50.836;4.348;2023-12-14T11:31:43;9.40;99.90
21582;DHT22;10952;50.836;4.348;2023-12-14T11:34:08;9.50;99.90
21582;DHT22;10952;50.836;4.348;2023-12-14T11:36:34;9.60;99.90
21582;DHT22;10952;50.836;4.348;2023-12-14T11:39:01;9.60;99.90
21582;DHT22;10952;50.836;4.348;2023-12-14T11:41:26;9.50;99.90
21582;DHT22;10952;50.836;4.348;2023-12-14T11:43:54;9.40;99.90
21582;DHT22;10952;50.836;4.348;2023-12-14T11:46:21;9.30;99.90
21582;DHT22;10952;50.836;4.348;2023-12-14T11:48:47;9.30;99.90
21582;DHT22;10952;50.836;4.348;2023-12-14T11:51:15;9.30;99.90
21582;DHT22;10952;50.836;4.348;2023-12-14T11:53:47;9.40;99.90
21582;DHT22;10952;50.836;4.348;2023-12-14T11:56:17;9.50;99.90
21582;DHT22;10952;50.836;4.348;2023-12-14T11:58:46;9.50;99.90
21582;DHT22;10952;50.836;4.348;2023-12-14T12:01:16;9.60;99.90
21582;DHT22;10952;50.836;4.348;2023-12-14T12:03:43;9.40;99.90
21582;DHT22;10952;50.836;4.348;2023-12-14T12:06:23;9.30;99.90
21582;DHT22;10952;50.836;4.348;2023-12-14T12:08:49;9.40;99.90
21582;DHT22;10952;50.836;4.348;2023-12-14T12:11:20;9.30;99.90
21582;DHT22;10952;50.836;4.348;2023-12-14T12:13:51;9.10;99.90
21582;DHT22;10952;50.836;4.348;2023-12-14T12:16:17;9.30;99.90
21582;DHT22;10952;50.836;4.348;2023-12-14T12:18:43;9.40;99.90
21582;DHT22;10952;50.836;4.348;2023-12-14T12:21:08;9.70;99.90
21582;DHT22;10952;50.836;4.348;2023-12-14T12:23:35;9.70;99.90
21582;DHT22;10952;50.836;4.348;2023-12-14T12:26:00;9.70;99.90
21582;DHT22;10952;50.836;4.348;2023-12-14T12:28:27;9.70;99.90
21582;DHT22;10952;50.836;4.348;2023-12-14T12:30:54;9.50;99.90
21582;DHT22;10952;50.836;4.348;2023-12-14T12:33:20;9.40;99.90
21582;DHT22;10952;50.836;4.348;2023-12-14T12:35:46;9.30;99.90
21582;DHT22;10952;50.836;4.348;2023-12-14T12:38:12;9.30;99.90
21582;DHT22;10952;50.836;4.348;2023-12-14T12:40:38;9.30;99.90
21582;DHT22;10952;50.836;4.348;2023-12-14T12:43:05;9.20;99.90
21582;DHT22;10952;50.836;4.348;2023-12-14T12:45:31;9.20;99.90
21582;DHT22;10952;50.836;4.348;2023-12-14T12:47:57;9.40;99.90
21582;DHT22;10952;50.836;4.348;2023-12-14T12:50:23;9.40;99.90
21582;DHT22;10952;50.836;4.348;2023-12-14T12:52:49;9.50;99.90
21582;DHT22;10952;50.836;4.348;2023-12-14T12:55:15;9.60;99.90
21582;DHT22;10952;50.836;4.348;2023-12-14T12:57:41;9.70;99.90
21582;DHT22;10952;50.836;4.348;2023-12-14T13:00:08;9.70;99.90
21582;DHT22;10952;50.836;4.348;2023-12-14T13:02:40;9.70;99.90
21582;DHT22;10952;50.836;4.348;2023-12-14T13:05:08;9.70;99.90
21582;DHT22;10952;50.836;4.348;2023-12-14T13:07:37;9.70;99.90
21582;DHT22;10952;50.836;4.348;2023-12-14T13:10:06;9.60;99.90
21582;DHT22;10952;50.836;4.348;2023-12-14T13:12:32;9.40;99.90
21582;DHT22;10952;50.836;4.348;2023-12-14T13:14:59;9.30;99.90
21582;DHT22;10952;50.836;4.348;2023-12-14T13:17:25;9.30;99.90
21582;DHT22;10952;50.836;4.348;2023-12-14T13:19:51;9.40;99.90
21582;DHT22;10952;50.836;4.348;2023-12-14T13:22:17;9.50;99.90
21582;DHT22;10952;50.836;4.348;2023-12-14T13:24:43;9.50;99.90
21582;DHT22;10952;50.836;4.348;2023-12-14T13:27:09;9.50;99.90
21582;DHT22;10952;50.836;4.348;2023-12-14T13:29:34;9.50;99.90
21582;DHT22;10952;50.836;4.348;2023-12-14T13:32:01;9.40;99.90
21582;DHT22;10952;50.836;4.348;2023-12-14T13:34:27;9.40;99.90
21582;DHT22;10952;50.836;4.348;2023-12-14T13:36:56;9.40;99.90
21582;DHT22;10952;50.836;4.348;2023-12-14T13:39:22;9.50;99.90
21582;DHT22;10952;50.836;4.348;2023-12-14T13:41:48;9.60;99.90
21582;DHT22;10952;50.836;4.348;2023-12-14T13:44:14;9.40;99.90
21582;DHT22;10952;50.836;4.348;2023-12-14T13:46:40;9.60;99.90
21582;DHT22;10952;50.836;4.348;2023-12-14T13:49:06;9.70;99.90
21582;DHT22;10952;50.836;4.348;2023-12-14T13:51:32;9.60;99.90
21582;DHT22;10952;50.836;4.348;2023-12-14T13:53:57;9.70;99.90
21582;DHT22;10952;50.836;4.348;2023-12-14T13:56:23;9.70;99.90
21582;DHT22;10952;50.836;4.348;2023-12-14T13:58:49;9.80;99.90
21582;DHT22;10952;50.836;4.348;2023-12-14T14:01:15;9.70;99.90
21582;DHT22;10952;50.836;4.348;2023-12-14T14:03:41;9.70;99.90
21582;DHT22;10952;50.836;4.348;2023-12-14T14:06:07;9.80;99.90
21582;DHT22;10952;50.836;4.348;2023-12-14T14:08:34;9.70;99.90
21582;DHT22;10952;50.836;4.348;2023-12-14T14:11:01;9.70;99.90
21582;DHT22;10952;50.836;4.348;2023-12-14T14:13:27;9.90;99.90
21582;DHT22;10952;50.836;4.348;2023-12-14T14:15:53;10.00;99.90
21582;DHT22;10952;50.836;4.348;2023-12-14T14:18:19;9.90;99.90
21582;DHT22;10952;50.836;4.348;2023-12-14T14:20:45;9.90;99.90
21582;DHT22;10952;50.836;4.348;2023-12-14T14:23:11;9.90;99.90
21582;DHT22;10952;50.836;4.348;2023-12-14T14:25:37;9.90;99.90
21582;DHT22;10952;50.836;4.348;2023-12-14T14:28:03;9.90;99.90
21582;DHT22;10952;50.836;4.348;2023-12-14T14:30:29;10.00;99.90
21582;DHT22;10952;50.836;4.348;2023-12-14T14:32:55;10.00;99.90
21582;DHT22;10952;50.836;4.348;2023-12-14T14:35:22;10.10;99.90
21582;DHT22;10952;50.836;4.348;2023-12-14T14:37:49;10.20;99.90
21582;DHT22;10952;50.836;4.348;2023-12-14T14:40:16;10.20;99.90
21582;DHT22;10952;50.836;4.348;2023-12-14T14:42:42;10.20;99.90
21582;DHT22;10952;50.836;4.348;2023-12-14T14:45:08;10.10;99.90
21582;DHT22;10952;50.836;4.348;2023-12-14T14:47:34;10.10;99.90
21582;DHT22;10952;50.836;4.348;2023-12-14T14:50:01;10.20;99.90
21582;DHT22;10952;50.836;4.348;2023-12-14T14:52:32;10.10;99.90
21582;DHT22;10952;50.836;4.348;2023-12-14T14:54:58;9.90;99.90
21582;DHT22;10952;50.836;4.348;2023-12-14T14:57:23;9.80;99.90
21582;DHT22;10952;50.836;4.348;2023-12-14T14:59:49;9.70;99.90
21582;DHT22;10952;50.836;4.348;2023-12-14T15:02:15;9.70;99.90
21582;DHT22;10952;50.836;4.348;2023-12-14T15:04:41;9.80;99.90
21582;DHT22;10952;50.836;4.348;2023-12-14T15:07:06;9.70;99.90
21582;DHT22;10952;50.836;4.348;2023-12-14T15:09:32;9.60;99.90
21582;DHT22;10952;50.836;4.348;2023-12-14T15:11:58;9.70;99.90
21582;DHT22;10952;50.836;4.348;2023-12-14T15:14:24;9.80;99.90
21582;DHT22;10952;50.836;4.348;2023-12-14T15:16:50;9.70;99.90
21582;DHT22;10952;50.836;4.348;2023-12-14T15:19:15;9.70;99.90
21582;DHT22;10952;50.836;4.348;2023-12-14T15:21:42;9.90;99.90
21582;DHT22;10952;50.836;4.348;2023-12-14T15:24:08;9.90;99.90
21582;DHT22;10952;50.836;4.348;2023-12-14T15:26:34;9.90;99.90
21582;DHT22;10952;50.836;4.348;2023-12-14T15:29:00;9.70;99.90
21582;DHT22;10952;50.836;4.348;2023-12-14T15:31:26;9.70;99.90
21582;DHT22;10952;50.836;4.348;2023-12-14T15:33:51;9.80;99.90
21582;DHT22;10952;50.836;4.348;2023-12-14T15:36:17;9.70;99.90
21582;DHT22;10952;50.836;4.348;2023-12-14T15:38:43;9.60;99.90
21582;DHT22;10952;50.836;4.348;2023-12-14T15:41:14;9.50;99.90
21582;DHT22;10952;50.836;4.348;2023-12-14T15:43:41;9.50;99.90